Time;durP1;ratioP1;P1;durP2;ratioP2;P2;SDS_P1;SDS_P2;PMS_P1;PMS_P2;Temp;Humidity;BMP_temperature;BMP_pressure;BME280_temperature;BME280_humidity;BME280_pressure;Samples;Min_cycle;Max_cycle;Signal;HPM_P1;HPM_P2
2021/03/11 00:02:25;;;;;;;18.97;11.67;;;;;;;7.36;56.82;95795.00;5057561;28;20871;-85
2021/03/11 00:04:51;;;;;;;18.13;11.40;;;;;;;7.44;56.07;95796.47;5057938;28;20440;-85
2021/03/11 00:07:18;;;;;;;21.07;11.50;;;;;;;7.39;56.81;95786.59;5057931;28;20454;-89
2021/03/11 00:09:44;;;;;;;17.47;11.43;;;;;;;7.40;55.83;95777.31;5058327;28;20511;-87
2021/03/11 00:12:11;;;;;;;20.37;11.50;;;;;;;7.56;55.72;95778.06;5058187;28;20409;-87
2021/03/11 00:14:37;;;;;;;15.53;11.00;;;;;;;7.48;56.19;95777.34;5057542;28;20541;-86
2021/03/11 00:17:04;;;;;;;18.80;12.47;;;;;;;7.46;55.92;95771.75;5057432;28;20421;-85
2021/03/11 00:19:31;;;;;;;17.77;11.00;;;;;;;7.42;56.23;95780.16;5057339;28;20517;-85
2021/03/11 00:21:58;;;;;;;23.23;12.43;;;;;;;7.53;56.09;95777.16;5057608;28;20497;-86
2021/03/11 00:24:24;;;;;;;24.90;12.90;;;;;;;7.62;55.95;95781.28;5057330;28;20437;-86
2021/03/11 00:26:50;;;;;;;18.57;11.83;;;;;;;7.58;55.99;95788.28;5057364;28;20488;-86
2021/03/11 00:29:17;;;;;;;16.57;11.87;;;;;;;7.58;56.01;95780.22;5058714;28;20449;-86
2021/03/11 00:31:43;;;;;;;17.43;10.43;;;;;;;7.49;56.28;95782.16;5061430;28;20911;-86
2021/03/11 00:34:09;;;;;;;17.57;11.27;;;;;;;7.45;56.40;95773.75;5061188;28;20484;-87
2021/03/11 00:36:36;;;;;;;21.47;12.10;;;;;;;7.56;56.10;95780.75;5061781;28;20421;-86
2021/03/11 00:39:03;;;;;;;19.57;11.30;;;;;;;7.58;55.75;95780.22;5061908;28;20875;-87
2021/03/11 00:41:29;;;;;;;20.40;11.40;;;;;;;7.50;56.00;95775.53;5061626;28;20461;-86
2021/03/11 00:43:55;;;;;;;18.30;11.80;;;;;;;7.50;56.16;95783.59;5061365;28;20431;-86
2021/03/11 00:46:21;;;;;;;16.77;11.70;;;;;;;7.54;56.51;95780.56;5060867;28;20507;-86
2021/03/11 00:48:47;;;;;;;16.20;10.33;;;;;;;7.58;56.47;95770.19;5061389;28;20449;-87
2021/03/11 00:51:14;;;;;;;19.10;12.70;;;;;;;7.69;55.95;95766.44;5061968;28;20446;-86
2021/03/11 00:53:41;;;;;;;18.60;11.87;;;;;;;7.64;55.99;95762.69;5061205;28;20855;-86
2021/03/11 00:56:07;;;;;;;21.60;11.97;;;;;;;7.66;56.14;95775.56;5060660;28;20519;-86
2021/03/11 00:58:33;;;;;;;17.13;11.87;;;;;;;7.70;55.80;95776.66;5061029;28;20516;-86
2021/03/11 01:01:00;;;;;;;18.63;12.77;;;;;;;7.73;56.06;95777.56;5060823;28;20822;-87
2021/03/11 01:03:26;;;;;;;19.77;11.40;;;;;;;7.66;55.98;95765.56;5060662;28;20816;-85
2021/03/11 01:05:52;;;;;;;15.87;10.30;;;;;;;7.62;56.70;95759.81;5060928;28;20483;-86
2021/03/11 01:08:18;;;;;;;17.00;10.40;;;;;;;7.73;56.03;95777.56;5060094;28;20458;-86
2021/03/11 01:27:35;;;;;;;15.40;10.43;;;;;;;7.82;58.30;95745.53;5060659;28;20445;-87
2021/03/11 01:30:02;;;;;;;22.00;11.33;;;;;;;7.85;58.26;95725.66;5060662;28;20426;-86
2021/03/11 01:32:28;;;;;;;17.07;10.43;;;;;;;7.89;57.90;95722.63;5060321;28;20587;-87
2021/03/11 01:34:54;;;;;;;20.03;10.30;;;;;;;7.94;58.09;95724.41;5060464;28;20473;-87
2021/03/11 01:37:20;;;;;;;18.63;10.60;;;;;;;7.90;58.49;95711.31;5060585;28;20529;-87
2021/03/11 01:39:46;;;;;;;14.53;9.10;;;;;;;7.91;59.11;95698.59;5059637;28;20963;-87
2021/03/11 01:42:13;;;;;;;13.63;8.07;;;;;;;7.93;59.41;95685.34;5060639;28;20442;-87
2021/03/11 01:44:40;;;;;;;11.33;7.63;;;;;;;8.02;59.10;95685.53;5060659;28;20519;-87
2021/03/11 01:47:06;;;;;;;12.10;7.53;;;;;;;7.98;59.88;95677.13;5060811;28;20460;-87
2021/03/11 01:49:32;;;;;;;10.60;7.10;;;;;;;8.01;59.88;95667.28;5060411;28;20454;-87
2021/03/11 01:51:58;;;;;;;13.40;7.13;;;;;;;8.06;60.51;95652.91;5061086;28;20451;-86
2021/03/11 01:54:24;;;;;;;9.10;6.20;;;;;;;8.06;60.58;95639.50;5060686;28;20431;-87
2021/03/11 01:56:51;;;;;;;9.00;5.90;;;;;;;8.14;60.42;95642.91;5060499;28;20485;-86
2021/03/11 01:59:18;;;;;;;10.57;5.77;;;;;;;8.14;60.52;95629.47;5060228;28;20452;-87
2021/03/11 02:01:45;;;;;;;8.40;5.60;;;;;;;8.13;60.96;95638.03;5060142;28;20447;-87
2021/03/11 02:04:11;;;;;;;8.77;6.00;;;;;;;8.08;60.96;95626.25;5060559;28;20457;-87
2021/03/11 02:06:37;;;;;;;10.80;5.63;;;;;;;8.09;61.02;95622.28;5060291;28;20504;-88
2021/03/11 02:09:04;;;;;;;8.33;5.30;;;;;;;8.15;61.08;95622.81;5060654;28;20980;-87
2021/03/11 02:11:32;;;;;;;9.70;6.10;;;;;;;8.02;61.34;95610.31;5069404;28;20438;-86
2021/03/11 02:14:06;;;;;;;10.27;5.60;;;;;;;8.02;61.54;95609.59;5080694;28;20408;-84
2021/03/11 02:16:37;;;;;;;11.90;6.73;;;;;;;7.92;61.56;95593.34;5080548;28;20428;-85
2021/03/11 02:19:12;;;;;;;10.00;6.90;;;;;;;7.94;61.89;95582.03;5066556;28;20469;-86
2021/03/11 02:21:46;;;;;;;10.17;5.90;;;;;;;7.93;61.79;95589.38;5059444;28;20469;-86
2021/03/11 02:24:28;;;;;;;12.23;7.20;;;;;;;8.00;61.58;95569.13;5059903;28;20409;-85
2021/03/11 02:27:25;;;;;;;10.50;6.50;;;;;;;8.06;61.06;95572.31;5059340;28;20412;-85
2021/03/11 02:29:53;;;;;;;12.70;7.60;;;;;;;8.16;60.72;95559.75;5060391;28;20442;-84
2021/03/11 02:32:21;;;;;;;11.07;7.20;;;;;;;8.19;60.60;95560.66;5059902;28;20442;-85
2021/03/11 02:34:50;;;;;;;15.80;8.47;;;;;;;8.02;60.67;95547.78;5060284;28;20490;-84
2021/03/11 02:37:22;;;;;;;12.73;8.30;;;;;;;8.03;60.57;95541.19;5040049;28;20468;-87
2021/03/11 02:39:54;;;;;;;10.93;6.97;;;;;;;7.93;60.91;95524.19;5040020;28;20868;-87
2021/03/11 02:42:22;;;;;;;14.20;7.80;;;;;;;7.87;60.94;95523.69;5050820;28;20389;-86
2021/03/11 02:44:50;;;;;;;11.60;7.57;;;;;;;7.90;60.83;95525.28;5058818;28;20457;-86
2021/03/11 02:47:17;;;;;;;11.83;7.83;;;;;;;7.89;60.52;95521.88;5058867;28;20814;-85
2021/03/11 02:49:44;;;;;;;16.30;7.93;;;;;;;7.89;60.40;95521.88;5074800;28;20440;-85
2021/03/11 02:52:11;;;;;;;11.07;7.10;;;;;;;8.00;60.38;95510.03;5058431;28;20457;-85
2021/03/11 02:54:38;;;;;;;12.40;7.30;;;;;;;7.95;60.30;95521.69;5059320;28;20525;-85
2021/03/11 02:57:07;;;;;;;17.93;7.73;;;;;;;7.96;59.82;95518.44;5059097;28;20446;-87
2021/03/11 02:59:36;;;;;;;13.10;7.90;;;;;;;7.92;59.75;95515.44;5059272;28;20421;-84
2021/03/11 03:02:04;;;;;;;11.93;7.40;;;;;;;7.99;59.41;95505.91;5058193;28;20833;-85
2021/03/11 03:04:33;;;;;;;14.97;8.63;;;;;;;7.99;58.91;95493.19;5058571;28;20434;-86
2021/03/11 03:07:00;;;;;;;14.40;8.57;;;;;;;7.97;59.07;95495.00;5059038;28;20435;-85
2021/03/11 03:09:27;;;;;;;13.03;8.47;;;;;;;7.92;59.06;95475.16;5059118;28;20504;-86
2021/03/11 03:11:54;;;;;;;12.70;7.50;;;;;;;7.88;58.92;95477.50;5058577;28;20919;-85
2021/03/11 03:14:21;;;;;;;15.17;9.23;;;;;;;7.94;58.76;95479.97;5058473;28;20480;-86
2021/03/11 03:16:48;;;;;;;15.67;8.93;;;;;;;8.00;58.24;95469.72;5058656;28;20466;-86
2021/03/11 03:19:15;;;;;;;13.30;9.07;;;;;;;7.96;58.24;95466.69;5058729;28;20503;-86
2021/03/11 03:21:43;;;;;;;13.67;9.20;;;;;;;8.01;58.50;95463.13;5058501;28;20421;-85
2021/03/11 03:24:10;;;;;;;15.77;8.43;;;;;;;7.92;58.51;95455.63;5058401;28;20442;-86
2021/03/11 03:26:36;;;;;;;12.60;9.20;;;;;;;8.00;58.34;95448.25;5058738;28;20518;-87
2021/03/11 03:29:04;;;;;;;12.10;8.27;;;;;;;7.90;58.32;95440.06;5058608;28;20452;-86
2021/03/11 03:31:30;;;;;;;13.63;8.00;;;;;;;8.03;59.67;95445.19;5059345;28;20441;-86
2021/03/11 03:33:56;;;;;;;14.33;8.97;;;;;;;7.94;60.78;95440.41;5058484;28;20433;-86
2021/03/11 03:36:23;;;;;;;12.07;8.37;;;;;;;7.92;61.52;95453.66;5058707;28;20481;-87
2021/03/11 03:38:50;;;;;;;16.97;8.50;;;;;;;7.95;61.62;95444.53;5058601;28;20529;-86
2021/03/11 03:41:17;;;;;;;13.70;9.77;;;;;;;7.89;61.97;95441.31;5058719;28;20405;-86
2021/03/11 03:43:45;;;;;;;16.13;9.57;;;;;;;7.84;62.30;95436.13;5058415;28;20436;-87
2021/03/11 03:46:14;;;;;;;11.60;8.10;;;;;;;7.84;61.86;95434.19;5058374;28;20444;-86
2021/03/11 03:48:43;;;;;;;15.80;8.50;;;;;;;7.83;62.33;95427.38;5057818;28;21020;-86
2021/03/11 03:51:11;;;;;;;11.40;7.83;;;;;;;7.86;61.81;95430.97;5057808;28;20447;-87
2021/03/11 03:53:42;;;;;;;17.10;8.83;;;;;;;7.86;62.58;95430.97;5057786;28;20939;-86
2021/03/11 03:56:16;;;;;;;10.57;7.13;;;;;;;7.91;61.78;95438.09;5058377;28;20591;-86
2021/03/11 03:58:44;;;;;;;12.80;7.03;;;;;;;7.92;61.88;95424.13;5057906;28;20418;-86
2021/03/11 04:01:11;;;;;;;13.90;7.17;;;;;;;8.01;61.26;95428.91;5059027;28;20406;-86
2021/03/11 04:03:38;;;;;;;10.77;6.13;;;;;;;8.09;61.53;95431.53;5072879;28;20476;-88
2021/03/11 04:06:06;;;;;;;10.10;5.90;;;;;;;8.18;61.77;95419.47;5077972;28;20433;-85
2021/03/11 04:08:34;;;;;;;8.30;5.63;;;;;;;8.17;62.46;95421.47;5061810;28;20485;-84
2021/03/11 04:11:01;;;;;;;8.37;4.97;;;;;;;8.25;62.94;95435.56;5059368;28;20415;-88
2021/03/11 04:13:30;;;;;;;10.50;4.77;;;;;;;8.37;63.01;95431.22;5059880;28;20443;-87
2021/03/11 04:15:56;;;;;;;11.60;5.80;;;;;;;8.53;62.79;95431.84;5059024;28;20977;-88
2021/03/11 04:18:23;;;;;;;8.50;4.90;;;;;;;8.63;63.72;95429.25;5059266;28;20463;-88
2021/03/11 04:20:50;;;;;;;11.70;4.10;;;;;;;8.65;64.68;95429.41;5058933;28;20471;-87
2021/03/11 04:23:16;;;;;;;7.60;4.03;;;;;;;8.71;65.07;95430.63;5058544;28;20879;-87
2021/03/11 04:25:43;;;;;;;7.33;4.20;;;;;;;8.74;65.33;95423.44;5058701;28;20871;-86
2021/03/11 04:28:09;;;;;;;9.77;4.13;;;;;;;8.87;65.88;95415.06;5058470;28;20554;-86
2021/03/11 04:30:37;;;;;;;8.43;3.57;;;;;;;8.96;66.34;95414.44;5057867;28;20529;-86
2021/03/11 04:33:04;;;;;;;6.83;4.20;;;;;;;9.02;66.01;95415.63;5057868;28;20478;-85
2021/03/11 04:35:30;;;;;;;5.13;2.97;;;;;;;9.08;66.06;95415.44;5058228;28;20461;-85
2021/03/11 04:37:57;;;;;;;6.10;4.07;;;;;;;9.09;66.40;95412.16;5058196;28;20442;-85
2021/03/11 04:40:23;;;;;;;5.73;3.50;;;;;;;9.16;66.77;95413.38;5058609;28;20944;-85
2021/03/11 04:42:50;;;;;;;7.50;3.47;;;;;;;9.15;66.73;95406.56;5057749;28;20421;-86
2021/03/11 04:45:16;;;;;;;8.30;4.80;;;;;;;9.17;66.90;95406.00;5058205;28;20433;-86
2021/03/11 04:47:45;;;;;;;5.77;3.40;;;;;;;9.20;66.69;95402.22;5058360;28;20982;-88
2021/03/11 04:50:11;;;;;;;6.90;3.00;;;;;;;9.27;66.57;95401.44;5059016;28;20431;-87
2021/03/11 04:52:38;;;;;;;9.03;3.17;;;;;;;9.26;66.93;95408.06;5058540;28;20492;-86
2021/03/11 04:55:06;;;;;;;11.90;3.83;;;;;;;9.23;67.18;95407.19;5058214;28;20462;-86
2021/03/11 04:57:32;;;;;;;4.63;3.00;;;;;;;9.27;66.91;95407.50;5057281;28;20442;-85
2021/03/11 04:59:59;;;;;;;8.33;3.07;;;;;;;9.31;66.66;95405.13;5056994;28;20488;-88
2021/03/11 05:02:27;;;;;;;10.53;3.97;;;;;;;9.24;67.10;95413.31;5058021;28;20478;-89
2021/03/11 05:04:55;;;;;;;7.73;3.33;;;;;;;9.31;67.16;95410.50;5057559;28;20503;-87
2021/03/11 05:07:21;;;;;;;4.20;2.97;;;;;;;9.31;67.37;95413.22;5057896;28;20457;-88
2021/03/11 05:09:47;;;;;;;4.93;3.30;;;;;;;9.24;67.69;95408.59;5057957;28;20448;-88
2021/03/11 05:12:13;;;;;;;5.00;3.43;;;;;;;9.37;67.27;95400.22;5058048;28;20427;-88
2021/03/11 05:14:39;;;;;;;12.10;3.70;;;;;;;9.35;67.31;95408.16;5057823;28;20435;-89
2021/03/11 05:17:06;;;;;;;4.83;3.43;;;;;;;9.27;68.13;95410.19;5061523;28;20444;-87
2021/03/11 05:19:32;;;;;;;7.27;3.73;;;;;;;9.33;67.78;95402.63;5060829;28;20462;-87
2021/03/11 05:21:59;;;;;;;5.17;3.30;;;;;;;9.32;67.64;95406.56;5060225;28;20916;-88
2021/03/11 05:24:26;;;;;;;6.67;3.23;;;;;;;9.34;67.93;95411.38;5061345;28;20423;-84
2021/03/11 05:26:52;;;;;;;10.50;3.10;;;;;;;9.29;67.81;95406.97;5060912;28;20811;-84
2021/03/11 05:29:18;;;;;;;8.67;3.73;;;;;;;9.22;68.33;95403.06;5060800;28;20449;-84
2021/03/11 05:31:44;;;;;;;6.47;3.10;;;;;;;9.27;68.23;95394.03;5061157;28;20412;-85
2021/03/11 05:34:10;;;;;;;6.50;3.57;;;;;;;9.35;68.23;95402.03;5061409;28;20429;-85
2021/03/11 05:36:36;;;;;;;4.90;3.20;;;;;;;9.31;68.39;95394.38;5061596;28;20912;-86
2021/03/11 05:39:05;;;;;;;7.07;3.80;;;;;;;9.29;68.78;95398.88;5061334;28;20433;-86
2021/03/11 05:41:36;;;;;;;7.03;3.60;;;;;;;9.27;68.87;95402.13;5061051;28;20818;-87
2021/03/11 05:44:02;;;;;;;5.00;3.47;;;;;;;9.23;69.28;95406.47;5061436;28;20438;-86
2021/03/11 05:46:30;;;;;;;6.17;3.60;;;;;;;9.26;69.35;95400.00;5078156;28;20955;-86
2021/03/11 05:48:56;;;;;;;7.83;4.00;;;;;;;9.19;69.47;95401.50;5078847;28;20485;-85
2021/03/11 05:51:23;;;;;;;8.40;3.80;;;;;;;9.23;69.33;95403.78;5077769;28;20389;-85
2021/03/11 05:53:50;;;;;;;3.53;2.90;;;;;;;9.21;69.50;95396.25;5072169;28;20452;-85
2021/03/11 05:56:17;;;;;;;4.57;3.20;;;;;;;9.23;69.83;95398.41;5061607;28;20458;-85
2021/03/11 05:58:43;;;;;;;5.30;4.00;;;;;;;9.18;70.15;95389.28;5061737;28;20423;-85
2021/03/11 06:01:10;;;;;;;6.10;3.80;;;;;;;9.23;70.04;95393.75;5061449;28;20514;-85
2021/03/11 06:03:36;;;;;;;6.93;3.70;;;;;;;9.27;69.90;95398.75;5061734;28;20405;-85
2021/03/11 06:06:04;;;;;;;6.70;3.60;;;;;;;9.28;70.03;95402.84;5062332;28;20437;-86
2021/03/11 06:08:31;;;;;;;7.50;4.50;;;;;;;9.29;69.83;95402.28;5062201;28;20514;-87
2021/03/11 06:10:59;;;;;;;10.37;3.47;;;;;;;9.36;69.82;95398.81;5062390;28;20503;-88
2021/03/11 06:13:26;;;;;;;7.07;3.57;;;;;;;9.39;70.06;95386.22;5062227;28;20446;-87
2021/03/11 06:16:01;;;;;;;8.60;3.37;;;;;;;9.44;69.75;95374.47;5061585;28;20942;-87
2021/03/11 06:18:31;;;;;;;3.90;2.90;;;;;;;9.43;69.48;95373.06;5061331;28;20472;-87
2021/03/11 06:21:00;;;;;;;6.30;4.17;;;;;;;9.45;69.95;95379.31;5061292;28;20430;-87
2021/03/11 06:23:26;;;;;;;4.77;3.43;;;;;;;9.45;69.62;95362.47;5062042;28;20431;-88
2021/03/11 06:25:54;;;;;;;8.03;3.70;;;;;;;9.48;69.73;95361.34;5062248;28;20482;-87
2021/03/11 06:28:49;;;;;;;5.53;2.77;;;;;;;9.44;69.73;95339.47;5060343;28;20499;-87
2021/03/11 06:31:17;;;;;;;11.73;3.77;;;;;;;9.49;69.28;95333.16;5061648;28;20896;-87
2021/03/11 06:33:43;;;;;;;4.63;2.47;;;;;;;9.51;69.34;95339.41;5062688;28;20429;-88
2021/03/11 06:36:13;;;;;;;11.43;3.07;;;;;;;9.54;69.23;95346.38;5060938;28;20435;-87
2021/03/11 06:38:39;;;;;;;6.13;2.90;;;;;;;9.55;68.87;95345.06;5062295;28;20421;-86
2021/03/11 06:41:05;;;;;;;7.53;3.40;;;;;;;9.51;68.89;95336.00;5060672;28;20417;-86
2021/03/11 06:43:32;;;;;;;7.03;2.30;;;;;;;9.57;69.05;95352.59;5062070;28;20421;-89
2021/03/11 06:46:06;;;;;;;8.97;3.10;;;;;;;9.53;68.64;95355.69;5063046;28;20541;-88
2021/03/11 06:48:32;;;;;;;4.23;3.20;;;;;;;9.64;68.04;95362.59;5065265;28;20551;-88
2021/03/11 06:50:59;;;;;;;8.13;3.63;;;;;;;9.71;68.03;95361.75;5063218;28;20429;-88
2021/03/11 06:53:26;;;;;;;8.83;3.77;;;;;;;9.71;67.65;95353.69;5063026;28;20444;-87
2021/03/11 06:55:52;;;;;;;3.57;2.50;;;;;;;9.77;67.31;95354.16;5066030;28;20433;-89
2021/03/11 06:58:21;;;;;;;4.00;3.30;;;;;;;9.84;67.07;95347.22;5077756;28;20525;-88
2021/03/11 07:01:01;;;;;;;10.03;3.07;;;;;;;9.87;66.70;95330.66;5084745;28;20506;-88
2021/03/11 07:03:37;;;;;;;5.63;2.83;;;;;;;9.90;66.90;95331.53;5083773;28;20446;-88
2021/03/11 07:06:04;;;;;;;8.30;2.40;;;;;;;9.96;66.72;95338.06;5082723;28;20533;-88
2021/03/11 07:08:30;;;;;;;10.83;3.10;;;;;;;9.96;66.99;95340.75;5082784;28;20502;-88
2021/03/11 07:11:04;;;;;;;6.97;2.23;;;;;;;9.98;66.68;95351.00;5082881;28;20408;-87
2021/03/11 07:13:38;;;;;;;7.13;2.83;;;;;;;9.97;66.79;95350.28;5082071;28;20377;-88
2021/03/11 07:16:12;;;;;;;5.80;2.57;;;;;;;10.03;66.75;95345.34;5083589;28;20954;-88
2021/03/11 07:18:38;;;;;;;3.30;2.33;;;;;;;9.97;67.00;95346.88;5088518;28;20624;-88
2021/03/11 07:21:04;;;;;;;3.73;2.03;;;;;;;10.05;66.75;95358.97;5088129;28;20456;-87
2021/03/11 07:23:30;;;;;;;10.53;2.67;;;;;;;10.13;66.95;95356.16;5083609;28;20432;-88
2021/03/11 07:25:57;;;;;;;3.93;2.50;;;;;;;10.20;66.59;95352.69;5083023;28;20492;-88
2021/03/11 07:28:24;;;;;;;5.83;2.97;;;;;;;10.21;66.30;95338.63;5083009;28;20556;-88
2021/03/11 07:30:52;;;;;;;4.00;2.50;;;;;;;10.33;65.83;95346.19;5081768;28;20431;-87
2021/03/11 07:33:20;;;;;;;4.20;2.37;;;;;;;10.31;66.22;95349.44;5082316;28;20457;-88
2021/03/11 07:35:47;;;;;;;7.30;3.07;;;;;;;10.38;66.29;95356.00;5081055;28;20460;-88
2021/03/11 07:38:17;;;;;;;7.27;2.30;;;;;;;10.42;66.62;95338.13;5080961;28;20445;-87
2021/03/11 07:40:45;;;;;;;2.90;2.10;;;;;;;10.40;66.60;95346.06;5082367;28;20499;-86
2021/03/11 07:43:13;;;;;;;5.13;2.60;;;;;;;10.44;66.99;95348.34;5082914;28;20459;-87
2021/03/11 07:45:40;;;;;;;4.17;2.00;;;;;;;10.52;66.32;95344.28;5082209;28;20427;-87
2021/03/11 07:48:09;;;;;;;4.23;2.60;;;;;;;10.57;66.45;95348.69;5080678;28;20576;-86
2021/03/11 07:50:36;;;;;;;2.60;2.03;;;;;;;10.64;65.45;95347.13;5083798;28;21009;-87
2021/03/11 07:53:04;;;;;;;4.50;1.87;;;;;;;10.65;65.92;95349.25;5081500;28;20452;-86
2021/03/11 07:55:31;;;;;;;3.23;2.30;;;;;;;10.77;65.74;95354.84;5081782;28;20450;-87
2021/03/11 07:57:59;;;;;;;4.33;2.70;;;;;;;10.83;65.66;95351.84;5081478;28;20967;-85
2021/03/11 08:00:27;;;;;;;3.67;2.57;;;;;;;10.89;65.38;95346.88;5081296;28;20531;-87
2021/03/11 08:02:55;;;;;;;5.00;2.43;;;;;;;10.90;66.00;95348.31;5084434;28;20605;-87
2021/03/11 08:05:26;;;;;;;3.93;1.97;;;;;;;10.99;65.49;95334.13;5083212;28;20443;-87
2021/03/11 08:08:18;;;;;;;6.63;3.40;;;;;;;11.01;65.13;95337.66;5096831;28;20528;-85
2021/03/11 08:10:46;;;;;;;6.27;3.13;;;;;;;11.09;65.47;95327.44;5098519;28;20377;-87
2021/03/11 08:13:32;;;;;;;4.33;2.07;;;;;;;11.16;64.97;95333.97;5093582;28;20426;-87
2021/03/11 08:16:00;;;;;;;3.47;2.53;;;;;;;11.21;64.71;95336.38;5082267;28;20470;-87
2021/03/11 08:18:45;;;;;;;3.53;2.37;;;;;;;11.35;64.53;95330.53;5083113;28;20441;-88
2021/03/11 08:21:46;;;;;;;3.67;1.77;;;;;;;11.44;63.40;95329.81;5085267;28;20535;-88
2021/03/11 08:24:44;;;;;;;4.10;1.60;;;;;;;11.46;63.72;95327.28;5084367;28;20433;-89
2021/03/11 08:27:42;;;;;;;2.30;1.57;;;;;;;11.49;63.50;95329.56;5085002;28;20416;-88
2021/03/11 08:30:53;;;;;;;2.23;1.77;;;;;;;11.62;62.92;95323.69;5088355;28;20639;-88
2021/03/11 08:33:47;;;;;;;6.30;1.80;;;;;;;11.69;63.28;95327.50;5087491;28;20443;-89
2021/03/11 08:36:30;;;;;;;8.70;1.80;;;;;;;11.72;62.93;95324.41;5086806;28;20431;-88
2021/03/11 08:38:57;;;;;;;2.07;1.73;;;;;;;11.72;62.72;95324.41;5088232;28;20908;-87
2021/03/11 08:41:33;;;;;;;8.07;2.20;;;;;;;11.74;63.17;95311.03;5097791;28;20400;-87
2021/03/11 08:44:02;;;;;;;3.17;1.40;;;;;;;11.89;62.95;95301.16;5086879;28;20449;-87
2021/03/11 08:46:49;;;;;;;2.53;1.50;;;;;;;11.95;62.82;95291.47;5084841;28;21061;-92
2021/03/11 08:49:40;;;;;;;2.20;1.63;;;;;;;12.00;62.41;95290.44;5062184;28;20453;-87
2021/03/11 08:52:07;;;;;;;2.10;1.73;;;;;;;12.12;62.66;95282.44;5102038;28;20443;-91
2021/03/11 08:54:33;;;;;;;2.30;1.47;;;;;;;12.23;62.22;95279.09;5101592;28;20479;-87
2021/03/11 08:57:00;;;;;;;3.00;1.70;;;;;;;12.14;62.79;95266.34;5099509;28;20473;-88
2021/03/11 08:59:47;;;;;;;2.30;1.60;;;;;;;12.32;62.90;95262.13;5073593;28;20412;-90
2021/03/11 09:02:33;;;;;;;3.53;1.60;;;;;;;12.48;62.31;95271.28;5075460;28;20421;-89
2021/03/11 09:04:59;;;;;;;4.70;2.07;;;;;;;12.51;62.44;95274.81;5071509;28;20466;-90
2021/03/11 09:07:30;;;;;;;4.03;2.13;;;;;;;12.69;62.29;95259.72;5088062;28;21004;-90
2021/03/11 09:09:57;;;;;;;3.17;1.50;;;;;;;12.74;61.97;95250.59;5092625;28;20452;-89
2021/03/11 09:12:32;;;;;;;1.93;1.50;;;;;;;12.83;61.87;95249.81;5088700;28;20456;-91
2021/03/11 09:15:00;;;;;;;4.13;1.57;;;;;;;12.91;61.39;95261.13;5089685;28;20955;-89
2021/03/11 09:17:28;;;;;;;1.60;1.30;;;;;;;13.02;60.86;95265.19;5090092;28;20432;-90
2021/03/11 09:20:00;;;;;;;3.53;1.70;;;;;;;13.03;61.22;95263.91;5089413;28;20437;-91
2021/03/11 09:22:29;;;;;;;3.53;1.77;;;;;;;13.13;60.41;95254.41;5091676;28;20465;-92
2021/03/11 09:24:58;;;;;;;1.70;1.60;;;;;;;13.07;60.79;95258.72;5099604;28;20450;-92
2021/03/11 09:27:28;;;;;;;2.47;1.50;;;;;;;13.10;60.39;95244.75;5092499;28;20441;-92
2021/03/11 09:29:54;;;;;;;2.10;1.77;;;;;;;13.14;60.52;95263.97;5089875;28;20452;-91
2021/03/11 09:32:20;;;;;;;3.20;1.90;;;;;;;13.25;60.03;95265.31;5090714;28;20469;-89
2021/03/11 09:34:54;;;;;;;4.90;1.60;;;;;;;13.12;60.64;95280.09;5089835;28;20528;-90
2021/03/11 09:37:48;;;;;;;4.90;1.93;;;;;;;13.15;60.39;95270.81;5087771;28;20476;-89
2021/03/11 09:40:21;;;;;;;3.37;1.47;;;;;;;13.22;60.26;95256.34;5087724;28;20429;-90
2021/03/11 09:43:17;;;;;;;3.13;1.20;;;;;;;13.19;60.21;95262.22;5085080;28;20470;-90
2021/03/11 09:45:46;;;;;;;2.47;1.53;;;;;;;13.29;59.98;95252.72;5084609;28;20813;-89
2021/03/11 09:48:16;;;;;;;2.10;1.53;;;;;;;13.28;59.99;95232.31;5087861;28;20600;-90
2021/03/11 09:50:50;;;;;;;3.80;1.70;;;;;;;13.41;59.68;95247.31;5091122;28;20449;-89
2021/03/11 09:53:17;;;;;;;3.03;1.67;;;;;;;13.45;59.62;95241.44;5089175;28;20506;-90
2021/03/11 09:55:44;;;;;;;2.93;1.00;;;;;;;13.48;59.85;95222.00;5088332;28;20570;-90
2021/03/11 09:58:15;;;;;;;5.63;1.50;;;;;;;13.52;59.80;95238.50;5073598;28;20499;-89
2021/03/11 10:00:42;;;;;;;4.73;1.50;;;;;;;13.51;60.17;95239.06;5071304;28;20451;-93
2021/03/11 10:03:22;;;;;;;2.97;1.60;;;;;;;13.54;60.02;95230.47;5069324;28;20496;-90
2021/03/11 10:05:54;;;;;;;2.30;1.30;;;;;;;13.47;60.62;95231.41;5070439;28;20549;-90
2021/03/11 10:08:31;;;;;;;2.70;1.20;;;;;;;13.53;60.65;95239.94;5067442;28;20565;-88
2021/03/11 10:11:02;;;;;;;2.63;0.87;;;;;;;13.54;60.56;95235.19;5070216;28;20443;-90
2021/03/11 10:13:38;;;;;;;1.77;1.20;;;;;;;13.48;61.11;95229.41;5067394;28;20454;-90
2021/03/11 10:16:05;;;;;;;1.37;0.97;;;;;;;13.52;61.33;95224.94;5069603;28;20453;-89
2021/03/11 10:18:32;;;;;;;5.60;1.20;;;;;;;13.55;61.57;95199.38;5069417;28;20442;-90
2021/03/11 10:21:04;;;;;;;1.70;0.90;;;;;;;13.70;61.51;95207.06;5069916;28;20441;-90
2021/03/11 10:23:30;;;;;;;3.23;1.10;;;;;;;13.88;61.20;95205.38;5068278;28;20912;-90
2021/03/11 10:26:27;;;;;;;1.40;1.10;;;;;;;14.01;60.72;95211.50;5068164;28;20473;-92
2021/03/11 10:29:05;;;;;;;8.50;1.57;;;;;;;14.05;60.72;95212.47;4990137;28;20474;-89
2021/03/11 10:31:32;;;;;;;3.13;1.30;;;;;;;14.06;60.83;95211.19;5055016;28;20525;-90
2021/03/11 10:34:04;;;;;;;3.23;0.97;;;;;;;14.09;61.05;95212.72;5066749;28;20909;-90
2021/03/11 10:36:30;;;;;;;2.10;1.13;;;;;;;14.16;61.36;95216.47;5066011;28;20577;-90
2021/03/11 10:39:11;;;;;;;1.27;0.93;;;;;;;14.25;61.08;95215.63;5067409;28;20466;-90
2021/03/11 10:41:39;;;;;;;2.00;1.47;;;;;;;14.35;60.98;95205.34;5068847;28;20447;-90
2021/03/11 10:44:12;;;;;;;1.83;1.10;;;;;;;14.42;60.84;95207.13;5068621;28;20430;-90
2021/03/11 10:46:39;;;;;;;3.87;1.07;;;;;;;14.48;60.98;95202.03;5070418;28;20898;-88
2021/03/11 10:49:06;;;;;;;1.77;0.80;;;;;;;14.55;61.15;95192.22;5067953;28;20496;-89
2021/03/11 10:51:33;;;;;;;1.43;0.80;;;;;;;14.75;60.85;95210.34;5067089;28;20943;-90
2021/03/11 10:54:00;;;;;;;3.27;1.00;;;;;;;14.69;60.90;95193.69;5067930;28;20451;-89
2021/03/11 10:56:27;;;;;;;1.33;0.80;;;;;;;14.78;60.97;95209.16;5069105;28;20425;-90
2021/03/11 10:59:05;;;;;;;2.23;1.23;;;;;;;14.76;61.27;95209.00;5079033;28;20476;-88
2021/03/11 11:01:32;;;;;;;0.93;0.87;;;;;;;14.69;61.60;95201.84;5074144;28;20429;-91
2021/03/11 11:04:00;;;;;;;1.00;0.90;;;;;;;14.66;61.72;95208.47;5088211;28;20441;-89
2021/03/11 11:06:28;;;;;;;5.60;0.90;;;;;;;14.49;62.57;95222.44;5087738;28;20445;-90
2021/03/11 11:08:54;;;;;;;2.97;1.10;;;;;;;14.28;63.61;95212.41;5086340;28;20623;-88
2021/03/11 11:11:21;;;;;;;2.63;1.00;;;;;;;14.06;64.85;95227.44;5087130;28;20521;-89
2021/03/11 11:13:47;;;;;;;3.10;0.90;;;;;;;13.90;68.04;95221.09;5082088;28;20937;-89
2021/03/11 11:16:14;;;;;;;1.13;0.77;;;;;;;13.68;72.18;95244.91;5066247;28;20494;-90
2021/03/11 11:18:42;;;;;;;2.30;1.00;;;;;;;13.55;73.34;95248.16;5064228;28;21033;-89
2021/03/11 11:21:08;;;;;;;6.10;1.20;;;;;;;13.36;75.15;95248.38;5065608;28;20791;-89
2021/03/11 11:23:35;;;;;;;2.00;1.40;;;;;;;13.29;76.18;95257.41;5065856;28;20510;-90
2021/03/11 11:26:01;;;;;;;3.03;1.60;;;;;;;13.17;77.80;95264.81;5066199;28;20467;-89
2021/03/11 11:28:28;;;;;;;5.63;1.10;;;;;;;13.16;78.99;95252.53;5065590;28;20545;-88
2021/03/11 11:30:54;;;;;;;3.87;1.20;;;;;;;12.99;79.07;95255.53;5067866;28;20522;-87
2021/03/11 11:33:20;;;;;;;2.50;0.90;;;;;;;12.85;80.13;95256.06;5085608;28;20465;-89
2021/03/11 11:35:50;;;;;;;1.90;0.80;;;;;;;12.69;80.61;95257.75;5083515;28;20466;-89
2021/03/11 11:38:16;;;;;;;2.53;1.20;;;;;;;12.62;81.28;95242.44;5084256;28;20412;-88
2021/03/11 11:40:42;;;;;;;1.67;0.90;;;;;;;12.54;82.71;95233.06;5083257;28;20422;-89
2021/03/11 11:43:08;;;;;;;2.57;0.90;;;;;;;12.55;82.64;95237.91;5085951;28;20420;-90
2021/03/11 11:45:34;;;;;;;1.20;0.90;;;;;;;12.44;82.77;95237.84;5078331;28;20433;-88
2021/03/11 11:48:00;;;;;;;8.40;1.17;;;;;;;12.46;83.36;95235.97;5071692;28;20478;-89
2021/03/11 11:50:26;;;;;;;1.03;0.90;;;;;;;12.34;85.15;95227.78;5072685;28;20411;-90
2021/03/11 11:52:53;;;;;;;1.57;0.87;;;;;;;12.40;85.23;95219.38;5074333;28;20520;-90
2021/03/11 11:55:19;;;;;;;4.73;1.03;;;;;;;12.43;85.20;95215.50;5066799;28;20505;-88
2021/03/11 11:57:47;;;;;;;5.60;1.17;;;;;;;12.35;86.01;95209.56;5061976;28;20405;-89
2021/03/11 12:00:15;;;;;;;3.90;1.10;;;;;;;12.27;86.27;95200.94;5065670;28;20435;-89
2021/03/11 12:02:41;;;;;;;2.03;1.00;;;;;;;12.22;87.06;95197.25;5067084;28;20496;-89